Bei Facebook empfehlenBei Twitter postenGoogle plusPinterest

Das Wetter im Erzgebirge am 22.05.2017

Wetter und Klima am 22.05.2017 Holzhau im Erzgebirge (630m ü.NN)
Letzte gemessene Temperatur und Uhrzeit der Messung23:45:00 Uhr7.40 °C
Temperatur (Maximum / Höchstwert) und Uhrzeit der Messung16:15:00 Uhr20.90 °C
Temperatur (Minimum / Tiefstwert) und Uhrzeit der Messung05:45:003.00 °C
Errechneter Absolutwert der Temperaturschwankungen zwischen Tmin und Tmax des Tages17.90 K
Errechnete Tagesmitteltemperatur12.44688 °C
Gesamt - Niederschlag des Tages (in flüssiger Form)0.00 Liter / m²
Luftdruck (Maximum / Höchstwert) und Zeitpunkt der Messung00:00:00 Uhr1020.00 hPa
Luftdruck (Minimum / Tiefstwert) und Zeitpunkt der Messung23:45:00 Uhr1014.50 hPa
Errechneter Absolutwert der Luftdruckschwankungen des Tages5.50 hPa
Höchste gemessene Windgeschwindigkeit und Uhrzeit der Messung09:45:00 Uhr67.32 km/h
Errechnete Windhäufigkeit in Relation zu den Messwerten des Tages38.54167 %
Niedrigste Windkühle (Windchill) und Zeitpunkt der Messung02:15:00 Uhr2.40 °C
Taupunkt (Maximum / Höchstwert) und Uhrzeit der Messung13:45:00 Uhr8.30 °C
Taupunkt (Minimum / Tiefstwert) und Uhrzeit der Messung05:45:001.50 °C
Anzahl der automatisch eingelesenen Messwerte 96

Detaillierte Wetter- und Klima- Messwerte für den 22.05.2017 in Holzhau im Erzgebirge (630m ü.NN)
ZeitTemperaturLuftdruckRel. LuftfeuchteWindWindrichtungWindchillTaupunktNiederschlag l/m²
23:45:007.40 °C1014.50 hPa81.00 %4.40 °C 
23:30:007.60 °C1014.60 hPa79.00 %4.20 °C 
23:15:008.10 °C1014.70 hPa79.00 %4.70 °C 
23:00:008.60 °C1014.80 hPa79.00 %5.20 °C 
22:45:008.70 °C1014.70 hPa78.00 %5.10 °C 
22:30:008.90 °C1014.80 hPa77.00 %5.10 °C 
22:15:009.20 °C1014.60 hPa75.00 %5.00 °C 
22:00:009.50 °C1014.60 hPa74.00 %5.10 °C 
21:45:009.90 °C1014.60 hPa71.00 %4.90 °C 
21:30:0010.70 °C1014.70 hPa69.00 %5.30 °C 
21:15:0011.60 °C1014.80 hPa67.00 %5.70 °C 
21:00:0012.40 °C1014.80 hPa65.00 %6.00 °C 
20:45:0013.40 °C1014.80 hPa61.00 %6.00 °C 
20:30:0014.40 °C1014.80 hPa57.00 %6.00 °C 
20:15:0015.50 °C1014.80 hPa54.00 %6.20 °C 
20:00:0016.30 °C1014.80 hPa52.00 %6.40 °C 
19:45:0017.20 °C1014.80 hPa50.00 %6.70 °C 
19:30:0017.80 °C1014.80 hPa48.00 %6.70 °C 
19:15:0018.10 °C1014.80 hPa48.00 %6.90 °C 
19:00:0018.10 °C1015.00 hPa47.00 %6.60 °C 
18:45:0018.40 °C1014.90 hPa47.00 %6.90 °C 
18:30:0018.40 °C1014.90 hPa46.00 %6.60 °C 
18:15:0018.20 °C1014.90 hPa48.00 %12.96 km/hSW18.20 °C7.00 °C 
18:00:0017.50 °C1015.10 hPa48.00 %6.48 km/hSW17.50 °C6.40 °C 
17:45:0017.60 °C1015.20 hPa46.00 %5.90 °C 
17:30:0018.30 °C1015.10 hPa43.00 %5.50 °C 
17:15:0019.50 °C1015.20 hPa41.00 %5.90 °C 
17:00:0020.50 °C1015.40 hPa41.00 %37.44 km/hSW21.10 °C6.80 °C 
16:45:0019.90 °C1015.40 hPa41.00 %7.92 km/hS19.90 °C6.30 °C 
16:30:0020.20 °C1015.70 hPa41.00 %6.50 °C 
16:15:0020.90 °C1015.80 hPa41.00 %9.00 km/hNNO20.90 °C7.20 °C 
16:00:0020.90 °C1015.60 hPa41.00 %7.20 °C 
15:45:0020.60 °C1015.70 hPa41.00 %6.90 °C 
15:30:0020.50 °C1015.70 hPa42.00 %12.96 km/hSSO20.50 °C7.20 °C 
15:15:0020.70 °C1016.00 hPa43.00 %30.96 km/hSW21.50 °C7.70 °C 
15:00:0020.20 °C1016.00 hPa44.00 %7.60 °C 
14:45:0020.40 °C1016.30 hPa43.00 %18.00 km/hNW21.50 °C7.40 °C 
14:30:0020.40 °C1016.40 hPa44.00 %16.92 km/hSO20.40 °C7.70 °C 
14:15:0020.10 °C1016.20 hPa45.00 %7.80 °C 
14:00:0020.30 °C1016.50 hPa45.00 %8.00 °C 
13:45:0019.90 °C1016.50 hPa47.00 %8.30 °C 
13:30:0019.30 °C1016.60 hPa46.00 %7.40 °C 
13:15:0019.40 °C1016.70 hPa45.00 %10.44 km/hNNO19.40 °C7.20 °C 
13:00:0019.40 °C1016.80 hPa45.00 %6.48 km/hSO19.40 °C7.20 °C 
12:45:0019.30 °C1017.10 hPa44.00 %6.80 °C 
12:30:0019.00 °C1017.20 hPa44.00 %15.48 km/hN19.00 °C6.50 °C 
12:15:0018.10 °C1017.20 hPa44.00 %20.88 km/hSO18.80 °C5.70 °C 
12:00:0017.90 °C1017.20 hPa46.00 %37.44 km/hOSO18.00 °C6.10 °C 
11:45:0017.80 °C1017.20 hPa43.00 %5.10 °C 
11:30:0017.30 °C1017.50 hPa43.00 %4.60 °C 
11:15:0016.90 °C1017.70 hPa42.00 %11.52 km/hNNW16.90 °C3.90 °C 
11:00:0016.80 °C1017.80 hPa42.00 %3.80 °C 
10:45:0016.80 °C1017.70 hPa40.00 %24.48 km/hOSO17.20 °C3.10 °C 
10:30:0016.40 °C1017.90 hPa43.00 %3.80 °C 
10:15:0015.90 °C1017.90 hPa45.00 %15.48 km/hOSO15.90 °C4.00 °C 
10:00:0015.60 °C1017.70 hPa45.00 %21.96 km/hOSO15.90 °C3.70 °C 
09:45:0015.60 °C1017.80 hPa45.00 %67.32 km/hSO14.50 °C3.70 °C 
09:30:0015.00 °C1017.80 hPa47.00 %15.48 km/hO15.00 °C3.80 °C 
09:15:0014.70 °C1018.00 hPa46.00 %28.44 km/hSO14.50 °C3.20 °C 
09:00:0014.40 °C1018.00 hPa49.00 %3.80 °C 
08:45:0014.30 °C1018.00 hPa50.00 %9.00 km/hSO14.30 °C4.00 °C 
08:30:0014.40 °C1018.00 hPa52.00 %11.52 km/hONO14.40 °C4.70 °C 
08:15:0014.10 °C1018.10 hPa55.00 %5.20 °C 
08:00:0013.30 °C1017.90 hPa62.00 %1.44 km/hSO13.30 °C6.20 °C 
07:45:0012.30 °C1018.00 hPa71.00 %7.20 °C 
07:30:0010.90 °C1018.10 hPa77.00 %7.00 °C 
07:15:008.70 °C1018.30 hPa84.00 %6.20 °C 
07:00:005.60 °C1018.40 hPa88.00 %3.80 °C 
06:45:004.90 °C1018.40 hPa89.00 %3.20 °C 
06:30:004.20 °C1018.50 hPa90.00 %2.70 °C 
06:15:003.60 °C1018.60 hPa90.00 %2.10 °C 
06:00:003.20 °C1018.50 hPa90.00 %1.70 °C 
05:45:003.00 °C1018.60 hPa90.00 %1.50 °C 
05:30:003.10 °C1018.50 hPa90.00 %1.60 °C 
05:15:003.20 °C1018.50 hPa89.00 %1.60 °C 
05:00:003.20 °C1018.50 hPa89.00 %1.60 °C 
04:45:003.40 °C1018.50 hPa89.00 %1.80 °C 
04:30:003.60 °C1018.60 hPa89.00 %18.00 km/hSO2.50 °C2.00 °C 
04:15:003.60 °C1018.70 hPa89.00 %9.00 km/hOSO3.60 °C2.00 °C 
04:00:003.80 °C1018.80 hPa89.00 %2.20 °C 
03:45:003.90 °C1018.90 hPa89.00 %16.92 km/hSO3.90 °C2.30 °C 
03:30:004.10 °C1018.90 hPa88.00 %2.30 °C 
03:15:004.50 °C1018.90 hPa88.00 %15.48 km/hSO4.50 °C2.70 °C 
03:00:004.50 °C1019.10 hPa89.00 %2.80 °C 
02:45:004.40 °C1019.20 hPa88.00 %11.52 km/hOSO4.40 °C2.60 °C 
02:30:004.40 °C1019.30 hPa88.00 %25.92 km/hOSO2.70 °C2.60 °C 
02:15:004.50 °C1019.30 hPa88.00 %30.96 km/hOSO2.40 °C2.70 °C 
02:00:004.60 °C1019.40 hPa87.00 %25.92 km/hSO2.90 °C2.60 °C 
01:45:004.80 °C1019.30 hPa87.00 %10.44 km/hOSO4.80 °C2.80 °C 
01:30:004.90 °C1019.40 hPa86.00 %24.48 km/hSO3.30 °C2.80 °C 
01:15:005.20 °C1019.60 hPa86.00 %3.10 °C 
01:00:005.10 °C1019.50 hPa86.00 %3.00 °C 
00:45:005.10 °C1019.60 hPa86.00 %3.00 °C 
00:30:005.20 °C1019.70 hPa85.00 %3.96 km/hOSO5.20 °C2.90 °C 
00:15:005.40 °C1019.80 hPa85.00 %16.92 km/hSO5.40 °C3.10 °C 
00:00:005.50 °C1020.00 hPa85.00 %7.92 km/hSO5.50 °C3.20 °C 

Permanenter Link zu dieser Seite: Wetter im Erzgebirge am 22.05.2017
Performance-Info: Die Erstellung der Seite / Statistik(en) / Tabelle(n) erforderte 5 Datenbankserver-Abfrage(n) und dauerte 69 Millisekunden. (Dieser Messwert ist von der Gesamt-Auslastung des Servers abhängig.)
Erzgebirge - Wetter | Erzgebirge - Wetter (Mobilgeräte) | Komplette Klimadatenbank